Ugrinovci/ Elgra Vižn

LYEV · Zentralserbien, Serbia

METAR-Geschichte LYEV · Ugrinovci/ Elgra Vižn

Unten siehst du die METARs der letzten paar Tage. Wähle ein Jahr, um ältere METARs ab dem Jahr 2007 zu durchsuchen.

27. Mai 2024

Uhrzeit Code Wetter Temp. Sichtweite Wolkendecke Wind METAR/SPECI
21:00
V
19 °C 10 km+ - 080° 080° 6 kt METAR LYBT 271900Z 08006KT CAVOK 19/13 Q1016 NOSIG
20:30
V
19 °C 10 km+ - 080° 080° 2 kt METAR LYBT 271830Z 08002KT CAVOK 19/12 Q1016 NOSIG
20:00
V
20 °C 10 km+ - 160° 160° 4 kt METAR LYBT 271800Z 16004KT CAVOK 20/13 Q1016 NOSIG
19:30
V
22 °C 10 km+ - 120° 120° 5 kt METAR LYBT 271730Z 12005KT 070V140 CAVOK 22/12 Q1016 NOSIG
19:00
V
23 °C 10 km+ - 050° 050° 5 kt METAR LYBT 271700Z 05005KT CAVOK 23/11 Q1017 NOSIG
18:30
V
23 °C 10 km+ - 050° 050° 10 kt METAR LYBT 271630Z 05010KT 020V080 CAVOK 23/11 Q1017 NOSIG
18:00
V
24 °C 10 km+ - 040° 040° 17 kt METAR LYBT 271600Z 04017KT CAVOK 24/11 Q1017 BECMG 04006KT
17:00
V
27 °C 10 km+ - 310° 310° 5 kt METAR LYBT 271500Z 31005KT 270V360 CAVOK 27/12 Q1016 NOSIG
16:30
V
27 °C 10 km+ - 320° 320° 3 kt METAR LYBT 271430Z 32003KT 200V350 CAVOK 27/10 Q1017 NOSIG
16:00
V
27 °C 10 km+ - Var Var 3 kt METAR LYBT 271400Z VRB03KT CAVOK 27/11 Q1017 NOSIG
15:30
V
27 °C 10 km+ - 220° 220° 3 kt METAR LYBT 271330Z 22003KT 150V300 CAVOK 27/10 Q1017 NOSIG
15:00
V
27 °C 10 km+ - 200° 200° 3 kt METAR LYBT 271300Z 20003KT 110V250 CAVOK 27/09 Q1017 NOSIG
14:30
V
27 °C 10 km+ - Var Var 2 kt METAR LYBT 271230Z VRB02KT CAVOK 27/09 Q1018 NOSIG
14:00
V
26 °C 10 km+ - 230° 230° 3 kt METAR LYBT 271200Z 23003KT 150V320 CAVOK 26/11 Q1018 NOSIG
13:30
V
25 °C 10 km+ - Var Var 3 kt METAR LYBT 271130Z VRB03KT CAVOK 25/11 Q1019 NOSIG
13:00
V
24 °C 10 km+ - Var Var 2 kt METAR LYBT 271100Z VRB02KT CAVOK 24/12 Q1019 NOSIG
12:30
V
24 °C 10 km+ - Var Var 2 kt METAR LYBT 271030Z VRB02KT CAVOK 24/13 Q1019 NOSIG
12:00
V
23 °C 10 km+ - 250° 250° 3 kt METAR LYBT 271000Z 25003KT 200V360 CAVOK 23/12 Q1019 NOSIG
11:30
V
22 °C 10 km+ - Var Var 2 kt METAR LYBT 270930Z VRB02KT CAVOK 22/14 Q1020 NOSIG
11:00
V
21 °C 10 km+ - Var Var 3 kt METAR LYBT 270900Z VRB03KT CAVOK 21/16 Q1020 NOSIG
10:30
V
19 °C 10 km+ - 240° 240° 3 kt METAR LYBT 270830Z 24003KT 170V300 CAVOK 19/17 Q1020 NOSIG
10:00
V
18 °C 10 km+ - 220° 220° 3 kt METAR LYBT 270800Z 22003KT 150V310 9999 SCT010 18/18 Q1020 NOSIG
09:30
L
16 °C 7 km 400 ft 220° 220° 3 kt METAR LYBT 270730Z 22003KT 150V290 7000 BKN004 16/16 Q1020 BECMG SCT006
09:00
L
15 °C 3 km 300 ft 240° 240° 4 kt METAR LYBT 270700Z 24004KT 200V290 3000 BR BKN003 15/15 Q1020 BECMG 6000 NSW SCT006
08:30
L
14 °C 600 m 200 ft Var Var 2 kt METAR LYBT 270630Z VRB02KT 0600 R12/1400U R30/0650N FG VV002 14/14 Q1020 BECMG 1500 BR
08:00
L
14 °C 350 m 100 ft Var Var 2 kt METAR LYBT 270600Z VRB02KT 0350 R12/0500N R30/0375U FG VV001 14/14 Q1020 NOSIG
07:30
L
13 °C 200 m 100 ft 240° 240° 3 kt METAR LYBT 270530Z 24003KT 210V300 0200 R12/0275N R30/0250N FG VV001 13/13 Q1020 NOSIG
07:00
L
13 °C 200 m 100 ft 210° 210° 3 kt METAR LYBT 270500Z 21003KT 170V250 0200 R12/0225N R30/0225N FG VV001 13/13 Q1020 NOSIG
06:30
L
12 °C 200 m 100 ft 220° 220° 5 kt METAR LYBT 270430Z 22005KT 0200 R12/M0150 R30/0225N FG VV001 12/12 Q1020 NOSIG
06:00
L
12 °C 200 m 100 ft 220° 220° 4 kt METAR LYBT 270400Z 22004KT 0200 R12/0150N R30/0225N FG VV001 12/12 Q1020 NOSIG
05:30
L
13 °C 400 m 100 ft 210° 210° 3 kt METAR LYBT 270330Z 21003KT 170V240 0400 R12/0700D R30/0600D FG VV001 13/13 Q1020 NOSIG
05:00
I
12 °C 2 km - 180° 180° 3 kt METAR LYBT 270300Z 18003KT 2000 BR NSC 12/11 Q1020 NOSIG
04:30
L
10 °C 500 m - 180° 180° 2 kt METAR LYBT 270230Z 18002KT 0500 R12/0500N R30/0900U FG NSC 10/10 Q1019 NOSIG
04:00
L
11 °C 300 m - 170° 170° 2 kt METAR LYBT 270200Z 17002KT 0300 R12/0375D R30/1300U FG NSC 11/11 Q1019 NOSIG
03:30
L
11 °C 500 m - 200° 200° 2 kt METAR LYBT 270130Z 20002KT 0500 R12/0550U R30/1600D FG NSC 11/11 Q1019 NOSIG
03:00
L
11 °C 1,2 km - 200° 200° 3 kt METAR LYBT 270100Z 20003KT 1200 R12/1200U R30/1800D BR NSC 11/11 Q1019 NOSIG
02:30
I
12 °C 3 km - 180° 180° 2 kt METAR LYBT 270030Z 18002KT 3000 BR NSC 12/12 Q1019 NOSIG
02:00
M
12 °C 5 km - 190° 190° 2 kt METAR LYBT 270000Z 19002KT 5000 1000SW R12/1400U R30/1500D BR NSC 12/12 Q1019 NOSIG
01:30
M
12 °C 7 km - Var Var 1 kt METAR LYBT 262330Z VRB01KT 7000 3000SW BR NSC 12/12 Q1019 NOSIG
01:00
V
13 °C 10 km+ - 190° 190° 1 kt METAR LYBT 262300Z 19001KT 9999 1100SW R12/P2000N R30/0900D BR NSC 13/12 Q1019 NOSIG
00:30
V
13 °C 10 km+ - 360° 360° 0 kt METAR LYBT 262230Z 00000KT CAVOK 13/13 Q1019 NOSIG
00:00
V
14 °C 10 km+ - 360° 360° 0 kt METAR LYBT 262200Z 00000KT CAVOK 14/13 Q1019 NOSIG

26. Mai 2024

Uhrzeit Code Wetter Temp. Sichtweite Wolkendecke Wind METAR/SPECI
23:30
V
14 °C 10 km+ - Var Var 2 kt METAR LYBT 262130Z VRB02KT CAVOK 14/12 Q1019 NOSIG
23:00
V
15 °C 10 km+ - Var Var 1 kt METAR LYBT 262100Z VRB01KT CAVOK 15/11 Q1019 NOSIG
22:30
V
16 °C 10 km+ - 360° 360° 0 kt METAR LYBT 262030Z 00000KT CAVOK 16/09 Q1019 NOSIG
22:00
V
17 °C 10 km+ - 140° 140° 2 kt METAR LYBT 262000Z 14002KT CAVOK 17/08 Q1019 NOSIG
21:30
V
18 °C 10 km+ - 120° 120° 5 kt METAR LYBT 261930Z 12005KT CAVOK 18/08 Q1019 NOSIG
21:00
V
17 °C 10 km+ - 140° 140° 3 kt METAR LYBT 261900Z 14003KT CAVOK 17/10 Q1019 NOSIG
20:30
V
18 °C 10 km+ - 110° 110° 5 kt METAR LYBT 261830Z 11005KT CAVOK 18/09 Q1018 NOSIG
20:00
V
20 °C 10 km+ - 120° 120° 5 kt METAR LYBT 261800Z 12005KT CAVOK 20/10 Q1018 NOSIG
19:30
V
21 °C 10 km+ - 120° 120° 6 kt METAR LYBT 261730Z 12006KT CAVOK 21/10 Q1018 NOSIG
19:00
V
22 °C 10 km+ - 120° 120° 6 kt METAR LYBT 261700Z 12006KT CAVOK 22/10 Q1018 NOSIG
18:30
V
22 °C 10 km+ - 120° 120° 6 kt METAR LYBT 261630Z 12006KT CAVOK 22/10 Q1018 NOSIG
18:00
V
23 °C 10 km+ - 120° 120° 8 kt METAR LYBT 261600Z 12008KT 080V140 CAVOK 23/09 Q1018 NOSIG
17:30
V
24 °C 10 km+ - 110° 110° 9 kt METAR LYBT 261530Z 11009KT 080V140 CAVOK 24/08 Q1018 NOSIG
17:00
V
24 °C 10 km+ - 120° 120° 8 kt METAR LYBT 261500Z 12008KT CAVOK 24/07 Q1018 NOSIG
16:30
V
25 °C 10 km+ - 100° 100° 8 kt METAR LYBT 261430Z 10008KT 070V130 CAVOK 25/07 Q1017 NOSIG
16:00
V
26 °C 10 km+ - 110° 110° 11 kt METAR LYBT 261400Z 11011KT 060V140 CAVOK 26/08 Q1017 NOSIG
15:30
V
26 °C 10 km+ - 100° 100° 10 kt METAR LYBT 261330Z 10010KT 040V140 CAVOK 26/07 Q1017 NOSIG
15:00
V
26 °C 10 km+ - 100° 100° 11 kt METAR LYBT 261300Z 10011KT 060V140 CAVOK 26/08 Q1017 NOSIG
14:30
V
26 °C 10 km+ - 100° 100° 12 kt METAR LYBT 261230Z 10012KT 060V120 9999 FEW040 26/09 Q1017 NOSIG
14:00
V
26 °C 10 km+ - 110° 110° 9 kt METAR LYBT 261200Z 11009KT 050V140 9999 FEW033 26/11 Q1017 NOSIG
13:30
V
25 °C 10 km+ - 110° 110° 7 kt METAR LYBT 261130Z 11007KT 030V160 9999 FEW033 25/12 Q1018 NOSIG
13:00
V
25 °C 10 km+ - 110° 110° 10 kt METAR LYBT 261100Z 11010KT 070V150 CAVOK 25/12 Q1018 NOSIG
12:30
V
25 °C 10 km+ - 120° 120° 8 kt METAR LYBT 261030Z 12008KT 080V160 CAVOK 25/12 Q1018 NOSIG
12:00
V
24 °C 10 km+ - 120° 120° 8 kt METAR LYBT 261000Z 12008KT 070V150 CAVOK 24/13 Q1018 NOSIG
11:30
V
23 °C 10 km+ - 110° 110° 7 kt METAR LYBT 260930Z 11007KT 070V140 CAVOK 23/13 Q1018 NOSIG
11:00
V
23 °C 10 km+ - 110° 110° 10 kt METAR LYBT 260900Z 11010KT 070V140 CAVOK 23/12 Q1018 NOSIG
10:30
V
22 °C 10 km+ - 110° 110° 10 kt METAR LYBT 260830Z 11010KT 070V150 CAVOK 22/13 Q1018 NOSIG
10:00
V
22 °C 10 km+ - 100° 100° 9 kt METAR LYBT 260800Z 10009KT CAVOK 22/13 Q1018 NOSIG
09:30
V
21 °C 10 km+ - 110° 110° 10 kt METAR LYBT 260730Z 11010KT 070V140 CAVOK 21/13 Q1017 NOSIG
09:00
V
21 °C 10 km+ - 110° 110° 10 kt METAR LYBT 260700Z 11010KT 060V140 CAVOK 21/14 Q1017 NOSIG
08:30
V
20 °C 10 km+ - 110° 110° 11 kt METAR LYBT 260630Z 11011KT 080V150 CAVOK 20/14 Q1017 NOSIG
08:00
V
20 °C 10 km+ - 110° 110° 13 kt METAR LYBT 260600Z 11013KT 070V130 CAVOK 20/14 Q1017 NOSIG
07:30
V
19 °C 10 km+ - 110° 110° 8 kt METAR LYBT 260530Z 11008KT 080V140 CAVOK 19/14 Q1017 NOSIG
07:00
V
17 °C 10 km+ - 100° 100° 5 kt METAR LYBT 260500Z 10005KT 060V150 CAVOK 17/13 Q1017 NOSIG
06:30
V
16 °C 10 km+ - 090° 090° 5 kt METAR LYBT 260430Z 09005KT 060V130 CAVOK 16/13 Q1016 NOSIG
06:00
V
16 °C 10 km+ - 080° 080° 5 kt METAR LYBT 260400Z 08005KT CAVOK 16/12 Q1016 NOSIG
05:30
V
15 °C 10 km+ - 080° 080° 4 kt METAR LYBT 260330Z 08004KT 050V120 CAVOK 15/12 Q1016 NOSIG
05:00
V
15 °C 10 km+ - 070° 070° 6 kt METAR LYBT 260300Z 07006KT CAVOK 15/12 Q1016 NOSIG
04:30
V
15 °C 10 km+ - 070° 070° 5 kt METAR LYBT 260230Z 07005KT CAVOK 15/13 Q1016 NOSIG
04:00
V
16 °C 10 km+ - 070° 070° 6 kt METAR LYBT 260200Z 07006KT CAVOK 16/13 Q1016 NOSIG
03:30
V
16 °C 10 km+ - 070° 070° 7 kt METAR LYBT 260130Z 07007KT CAVOK 16/13 Q1016 NOSIG
03:00
V
16 °C 10 km+ - 060° 060° 7 kt METAR LYBT 260100Z 06007KT CAVOK 16/14 Q1016 NOSIG
02:30
V
17 °C 10 km+ - 070° 070° 7 kt METAR LYBT 260030Z 07007KT CAVOK 17/14 Q1016 NOSIG
02:00
V
17 °C 10 km+ - 060° 060° 4 kt METAR LYBT 260000Z 06004KT CAVOK 17/14 Q1016 NOSIG
01:30
V
17 °C 10 km+ - 040° 040° 5 kt METAR LYBT 252330Z 04005KT CAVOK 17/14 Q1016 NOSIG
01:00
V
17 °C 10 km+ - Var Var 2 kt METAR LYBT 252300Z VRB02KT CAVOK 17/15 Q1016 NOSIG
00:30
V
19 °C 10 km+ - Var Var 2 kt METAR LYBT 252230Z VRB02KT CAVOK 19/14 Q1016 NOSIG
00:00
V
19 °C 10 km+ - 090° 090° 4 kt METAR LYBT 252200Z 09004KT 050V130 CAVOK 19/13 Q1015 NOSIG

25. Mai 2024

Uhrzeit Code Wetter Temp. Sichtweite Wolkendecke Wind METAR/SPECI
23:30
V
19 °C 10 km+ - 070° 070° 6 kt METAR LYBT 252130Z 07006KT CAVOK 19/13 Q1015 NOSIG
23:00
V
19 °C 10 km+ - 070° 070° 4 kt METAR LYBT 252100Z 07004KT 040V100 CAVOK 19/13 Q1015 NOSIG
22:30
V
20 °C 10 km+ - 070° 070° 5 kt METAR LYBT 252030Z 07005KT 040V100 CAVOK 20/12 Q1015 NOSIG
22:00
V
20 °C 10 km+ - 070° 070° 4 kt METAR LYBT 252000Z 07004KT CAVOK 20/12 Q1015 NOSIG
21:30
V
21 °C 10 km+ - 090° 090° 6 kt METAR LYBT 251930Z 09006KT 050V130 CAVOK 21/12 Q1015 NOSIG
21:00
V
21 °C 10 km+ - 090° 090° 7 kt METAR LYBT 251900Z 09007KT 060V140 CAVOK 21/12 Q1015 NOSIG
20:30
V
22 °C 10 km+ - 100° 100° 7 kt METAR LYBT 251830Z 10007KT CAVOK 22/12 Q1015 NOSIG
20:00
V
23 °C 10 km+ - 100° 100° 9 kt METAR LYBT 251800Z 10009KT 040V120 CAVOK 23/12 Q1014 NOSIG
19:30
V
23 °C 10 km+ - 100° 100° 9 kt METAR LYBT 251730Z 10009KT 060V130 CAVOK 23/12 Q1014 NOSIG
19:00
V
24 °C 10 km+ - 090° 090° 8 kt METAR LYBT 251700Z 09008KT 060V140 CAVOK 24/12 Q1014 NOSIG
18:30
V
25 °C 10 km+ - 100° 100° 10 kt METAR LYBT 251630Z 10010KT 070V130 CAVOK 25/12 Q1014 NOSIG
18:00
V
25 °C 10 km+ - 100° 100° 10 kt METAR LYBT 251600Z 10010KT 080V140 CAVOK 25/12 Q1014 NOSIG
17:30
V
26 °C 10 km+ - 100° 100° 12 kt METAR LYBT 251530Z 10012KT 050V130 CAVOK 26/12 Q1014 NOSIG
17:00
V
26 °C 10 km+ - 090° 090° 13 kt METAR LYBT 251500Z 09013KT 040V130 CAVOK 26/12 Q1014 NOSIG
16:30
V
27 °C 10 km+ - 100° 100° 14 kt METAR LYBT 251430Z 10014KT 070V140 CAVOK 27/12 Q1014 NOSIG
16:00
V
27 °C 10 km+ - 100° 100° 12 kt METAR LYBT 251400Z 10012KT 070V130 CAVOK 27/12 Q1014 NOSIG
15:30
V
27 °C 10 km+ - 110° 110° 13 kt METAR LYBT 251330Z 11013KT 060V140 CAVOK 27/12 Q1015 NOSIG
15:00
V
27 °C 10 km+ - 110° 110° 11 - 21 kt METAR LYBT 251300Z 11011G21KT 9999 SCT047 27/12 Q1015 NOSIG
14:30
V
26 °C 10 km+ - 110° 110° 12 kt METAR LYBT 251230Z 11012KT 070V140 9999 FEW047 26/13 Q1016 NOSIG
14:00
V
26 °C 10 km+ - 100° 100° 12 kt METAR LYBT 251200Z 10012KT 050V140 9999 FEW047 26/13 Q1016 NOSIG
13:30
V
26 °C 10 km+ - 110° 110° 10 kt METAR LYBT 251130Z 11010KT 050V140 9999 FEW047 26/13 Q1017 NOSIG
13:00
V
25 °C 10 km+ - 130° 130° 12 kt METAR LYBT 251100Z 13012KT 9999 FEW047 25/14 Q1017 NOSIG
12:30
V
24 °C 10 km+ - 120° 120° 14 kt METAR LYBT 251030Z 12014KT 090V150 9999 FEW043 24/14 Q1017 NOSIG
12:00
V
24 °C 10 km+ - 120° 120° 12 kt METAR LYBT 251000Z 12012KT 080V140 9999 FEW043 24/15 Q1017 NOSIG
11:30
V
23 °C 10 km+ - 120° 120° 14 kt METAR LYBT 250930Z 12014KT 080V140 9999 FEW043 23/15 Q1017 NOSIG
11:00
V
23 °C 10 km+ - 110° 110° 12 kt METAR LYBT 250900Z 11012KT 070V140 9999 FEW033 23/15 Q1017 NOSIG
10:30
V
22 °C 10 km+ - 100° 100° 9 kt METAR LYBT 250830Z 10009KT 060V150 CAVOK 22/16 Q1018 NOSIG
10:00
V
22 °C 10 km+ - 110° 110° 9 kt METAR LYBT 250800Z 11009KT 070V140 CAVOK 22/18 Q1018 NOSIG
09:30
V
21 °C 10 km+ - 080° 080° 9 kt METAR LYBT 250730Z 08009KT 050V110 CAVOK 21/17 Q1018 NOSIG
09:00
V
20 °C 10 km+ - 080° 080° 6 kt METAR LYBT 250700Z 08006KT 040V120 CAVOK 20/17 Q1018 NOSIG
08:30
V
19 °C 10 km+ - 090° 090° 5 kt METAR LYBT 250630Z 09005KT 040V140 CAVOK 19/17 Q1018 NOSIG
08:00
V
17 °C 10 km+ - 080° 080° 4 kt METAR LYBT 250600Z 08004KT 040V120 CAVOK 17/16 Q1018 NOSIG
Eine Änderung melden